sensor_id;sensor_type;location;lat;lon;timestamp;P1;durP1;ratioP1;P2;durP2;ratioP2
2173;SDS011;1093;51.424;11.764;2022-07-01T11:27:16;10.20;;;8.63;;
2173;SDS011;1093;51.424;11.764;2022-07-01T11:29:44;10.20;;;7.33;;
2173;SDS011;1093;51.424;11.764;2022-07-01T11:32:11;11.30;;;8.80;;
2173;SDS011;1093;51.424;11.764;2022-07-01T11:34:37;12.50;;;9.07;;
2173;SDS011;1093;51.424;11.764;2022-07-01T11:37:08;8.07;;;6.73;;
2173;SDS011;1093;51.424;11.764;2022-07-01T11:40:02;8.30;;;7.30;;
2173;SDS011;1093;51.424;11.764;2022-07-01T11:42:32;8.83;;;7.53;;
2173;SDS011;1093;51.424;11.764;2022-07-01T11:45:00;10.93;;;8.57;;
2173;SDS011;1093;51.424;11.764;2022-07-01T11:47:27;10.57;;;9.33;;
2173;SDS011;1093;51.424;11.764;2022-07-01T11:49:54;10.73;;;9.37;;
2173;SDS011;1093;51.424;11.764;2022-07-01T11:52:21;10.57;;;9.13;;
2173;SDS011;1093;51.424;11.764;2022-07-01T11:54:49;13.30;;;10.00;;
2173;SDS011;1093;51.424;11.764;2022-07-01T11:57:19;12.40;;;10.17;;
2173;SDS011;1093;51.424;11.764;2022-07-01T11:59:51;11.90;;;10.40;;
2173;SDS011;1093;51.424;11.764;2022-07-01T12:02:20;14.37;;;10.00;;
2173;SDS011;1093;51.424;11.764;2022-07-01T12:04:48;16.10;;;10.67;;
2173;SDS011;1093;51.424;11.764;2022-07-01T12:07:18;13.07;;;10.80;;
2173;SDS011;1093;51.424;11.764;2022-07-01T12:09:47;14.53;;;11.27;;
2173;SDS011;1093;51.424;11.764;2022-07-01T12:12:17;15.50;;;12.30;;
2173;SDS011;1093;51.424;11.764;2022-07-01T12:14:51;18.37;;;11.93;;
2173;SDS011;1093;51.424;11.764;2022-07-01T12:17:19;17.87;;;12.80;;
2173;SDS011;1093;51.424;11.764;2022-07-01T12:19:46;19.60;;;14.27;;
2173;SDS011;1093;51.424;11.764;2022-07-01T12:22:14;20.37;;;14.00;;
2173;SDS011;1093;51.424;11.764;2022-07-01T12:24:44;19.17;;;14.33;;
2173;SDS011;1093;51.424;11.764;2022-07-01T12:27:11;20.80;;;14.27;;
2173;SDS011;1093;51.424;11.764;2022-07-01T12:29:48;18.00;;;14.23;;
2173;SDS011;1093;51.424;11.764;2022-07-01T12:32:18;20.33;;;14.20;;
2173;SDS011;1093;51.424;11.764;2022-07-01T12:34:49;20.17;;;15.20;;
2173;SDS011;1093;51.424;11.764;2022-07-01T12:37:18;20.70;;;14.10;;
2173;SDS011;1093;51.424;11.764;2022-07-01T12:39:47;20.10;;;15.17;;
2173;SDS011;1093;51.424;11.764;2022-07-01T12:42:25;18.77;;;14.10;;
2173;SDS011;1093;51.424;11.764;2022-07-01T12:44:54;18.33;;;13.23;;
2173;SDS011;1093;51.424;11.764;2022-07-01T12:47:27;22.00;;;14.23;;
2173;SDS011;1093;51.424;11.764;2022-07-01T12:50:07;17.60;;;13.20;;
2173;SDS011;1093;51.424;11.764;2022-07-01T12:52:36;23.47;;;15.73;;
2173;SDS011;1093;51.424;11.764;2022-07-01T12:55:12;21.30;;;13.57;;
2173;SDS011;1093;51.424;11.764;2022-07-01T12:57:40;19.67;;;14.33;;
2173;SDS011;1093;51.424;11.764;2022-07-01T13:00:07;19.80;;;13.70;;
2173;SDS011;1093;51.424;11.764;2022-07-01T13:02:36;15.97;;;12.27;;
2173;SDS011;1093;51.424;11.764;2022-07-01T13:05:03;19.63;;;14.10;;
2173;SDS011;1093;51.424;11.764;2022-07-01T13:07:30;17.90;;;13.77;;
2173;SDS011;1093;51.424;11.764;2022-07-01T13:09:56;19.30;;;13.70;;
2173;SDS011;1093;51.424;11.764;2022-07-01T13:12:23;17.47;;;12.87;;
2173;SDS011;1093;51.424;11.764;2022-07-01T13:14:50;19.47;;;13.67;;
2173;SDS011;1093;51.424;11.764;2022-07-01T13:17:16;18.70;;;13.23;;
2173;SDS011;1093;51.424;11.764;2022-07-01T13:19:44;22.23;;;13.63;;
2173;SDS011;1093;51.424;11.764;2022-07-01T13:25:34;21.83;;;14.97;;
2173;SDS011;1093;51.424;11.764;2022-07-01T13:28:01;18.60;;;12.97;;
2173;SDS011;1093;51.424;11.764;2022-07-01T13:30:28;16.53;;;11.10;;
2173;SDS011;1093;51.424;11.764;2022-07-01T13:32:54;18.00;;;12.53;;
2173;SDS011;1093;51.424;11.764;2022-07-01T13:35:23;19.57;;;14.37;;
2173;SDS011;1093;51.424;11.764;2022-07-01T13:37:50;17.80;;;12.80;;
2173;SDS011;1093;51.424;11.764;2022-07-01T13:40:18;19.83;;;13.97;;
2173;SDS011;1093;51.424;11.764;2022-07-01T13:42:45;25.47;;;14.07;;
2173;SDS011;1093;51.424;11.764;2022-07-01T13:45:11;22.27;;;14.87;;
2173;SDS011;1093;51.424;11.764;2022-07-01T13:47:39;19.63;;;13.23;;
2173;SDS011;1093;51.424;11.764;2022-07-01T13:50:06;22.23;;;14.10;;
2173;SDS011;1093;51.424;11.764;2022-07-01T13:52:36;19.53;;;12.23;;
2173;SDS011;1093;51.424;11.764;2022-07-01T13:55:04;26.03;;;14.30;;
2173;SDS011;1093;51.424;11.764;2022-07-01T13:57:32;22.27;;;13.77;;
2173;SDS011;1093;51.424;11.764;2022-07-01T13:59:59;21.23;;;13.13;;
2173;SDS011;1093;51.424;11.764;2022-07-01T14:02:26;15.53;;;12.00;;
2173;SDS011;1093;51.424;11.764;2022-07-01T14:04:52;15.97;;;11.80;;
2173;SDS011;1093;51.424;11.764;2022-07-01T14:07:19;15.93;;;12.90;;
2173;SDS011;1093;51.424;11.764;2022-07-01T14:09:47;17.63;;;13.27;;
2173;SDS011;1093;51.424;11.764;2022-07-01T14:12:14;16.30;;;12.57;;
2173;SDS011;1093;51.424;11.764;2022-07-01T14:14:41;17.23;;;12.00;;
2173;SDS011;1093;51.424;11.764;2022-07-01T14:17:08;18.07;;;13.30;;
2173;SDS011;1093;51.424;11.764;2022-07-01T14:19:35;19.00;;;13.27;;
2173;SDS011;1093;51.424;11.764;2022-07-01T14:22:02;18.83;;;13.70;;
2173;SDS011;1093;51.424;11.764;2022-07-01T14:24:28;16.17;;;11.70;;
2173;SDS011;1093;51.424;11.764;2022-07-01T14:26:56;21.90;;;13.57;;
2173;SDS011;1093;51.424;11.764;2022-07-01T14:29:23;21.03;;;12.67;;
2173;SDS011;1093;51.424;11.764;2022-07-01T14:31:50;19.33;;;13.13;;
2173;SDS011;1093;51.424;11.764;2022-07-01T14:34:16;15.23;;;11.30;;
2173;SDS011;1093;51.424;11.764;2022-07-01T14:36:43;13.57;;;10.83;;
2173;SDS011;1093;51.424;11.764;2022-07-01T14:39:10;16.60;;;11.77;;
2173;SDS011;1093;51.424;11.764;2022-07-01T14:41:37;17.90;;;10.97;;
2173;SDS011;1093;51.424;11.764;2022-07-01T14:44:05;12.90;;;9.70;;
2173;SDS011;1093;51.424;11.764;2022-07-01T14:46:32;17.60;;;11.67;;
2173;SDS011;1093;51.424;11.764;2022-07-01T14:48:59;19.47;;;12.40;;
2173;SDS011;1093;51.424;11.764;2022-07-01T14:51:26;16.00;;;11.47;;
2173;SDS011;1093;51.424;11.764;2022-07-01T14:53:53;15.80;;;11.23;;
2173;SDS011;1093;51.424;11.764;2022-07-01T14:56:19;14.17;;;11.30;;
2173;SDS011;1093;51.424;11.764;2022-07-01T14:58:46;18.17;;;11.17;;
2173;SDS011;1093;51.424;11.764;2022-07-01T15:01:14;17.23;;;11.50;;
2173;SDS011;1093;51.424;11.764;2022-07-01T15:03:41;17.90;;;11.87;;
2173;SDS011;1093;51.424;11.764;2022-07-01T15:06:08;18.77;;;13.40;;
2173;SDS011;1093;51.424;11.764;2022-07-01T15:08:35;17.97;;;11.90;;
2173;SDS011;1093;51.424;11.764;2022-07-01T15:11:04;18.37;;;12.73;;
2173;SDS011;1093;51.424;11.764;2022-07-01T15:13:32;17.10;;;11.83;;
2173;SDS011;1093;51.424;11.764;2022-07-01T15:16:01;20.97;;;14.00;;
2173;SDS011;1093;51.424;11.764;2022-07-01T15:18:29;23.17;;;14.60;;
2173;SDS011;1093;51.424;11.764;2022-07-01T15:20:57;20.57;;;13.87;;
2173;SDS011;1093;51.424;11.764;2022-07-01T15:23:24;19.50;;;13.47;;
2173;SDS011;1093;51.424;11.764;2022-07-01T15:25:50;23.50;;;15.43;;
2173;SDS011;1093;51.424;11.764;2022-07-01T15:28:17;23.70;;;13.77;;
2173;SDS011;1093;51.424;11.764;2022-07-01T15:30:44;21.27;;;15.13;;
2173;SDS011;1093;51.424;11.764;2022-07-01T15:33:12;18.40;;;13.90;;
2173;SDS011;1093;51.424;11.764;2022-07-01T15:35:40;21.73;;;13.23;;
2173;SDS011;1093;51.424;11.764;2022-07-01T15:38:07;19.67;;;13.60;;
2173;SDS011;1093;51.424;11.764;2022-07-01T15:40:35;22.13;;;15.67;;
2173;SDS011;1093;51.424;11.764;2022-07-01T15:43:01;23.43;;;15.77;;
2173;SDS011;1093;51.424;11.764;2022-07-01T15:45:28;19.60;;;15.20;;
2173;SDS011;1093;51.424;11.764;2022-07-01T15:47:55;23.60;;;15.13;;
2173;SDS011;1093;51.424;11.764;2022-07-01T15:50:31;23.23;;;14.07;;
2173;SDS011;1093;51.424;11.764;2022-07-01T15:53:00;22.97;;;15.30;;
2173;SDS011;1093;51.424;11.764;2022-07-01T15:55:26;23.37;;;14.90;;
2173;SDS011;1093;51.424;11.764;2022-07-01T15:57:53;17.67;;;13.07;;
2173;SDS011;1093;51.424;11.764;2022-07-01T16:00:20;21.70;;;13.90;;
2173;SDS011;1093;51.424;11.764;2022-07-01T16:02:49;15.53;;;11.73;;
2173;SDS011;1093;51.424;11.764;2022-07-01T16:05:15;17.50;;;13.20;;
2173;SDS011;1093;51.424;11.764;2022-07-01T16:07:43;16.90;;;11.73;;
2173;SDS011;1093;51.424;11.764;2022-07-01T16:10:27;16.57;;;11.70;;
2173;SDS011;1093;51.424;11.764;2022-07-01T16:12:57;19.33;;;11.73;;
2173;SDS011;1093;51.424;11.764;2022-07-01T16:15:24;16.17;;;10.93;;
2173;SDS011;1093;51.424;11.764;2022-07-01T16:17:53;18.47;;;11.90;;
2173;SDS011;1093;51.424;11.764;2022-07-01T16:20:23;13.87;;;9.80;;
2173;SDS011;1093;51.424;11.764;2022-07-01T16:22:50;13.40;;;8.93;;
2173;SDS011;1093;51.424;11.764;2022-07-01T16:25:21;14.73;;;10.57;;
2173;SDS011;1093;51.424;11.764;2022-07-01T16:27:49;11.97;;;8.73;;
2173;SDS011;1093;51.424;11.764;2022-07-01T16:30:17;14.40;;;9.47;;
2173;SDS011;1093;51.424;11.764;2022-07-01T16:32:44;12.87;;;9.23;;
2173;SDS011;1093;51.424;11.764;2022-07-01T16:35:12;12.00;;;8.63;;
2173;SDS011;1093;51.424;11.764;2022-07-01T16:37:40;13.50;;;8.03;;
2173;SDS011;1093;51.424;11.764;2022-07-01T16:40:10;12.00;;;7.70;;
2173;SDS011;1093;51.424;11.764;2022-07-01T16:42:41;13.33;;;10.20;;
2173;SDS011;1093;51.424;11.764;2022-07-01T16:45:13;11.20;;;8.60;;
2173;SDS011;1093;51.424;11.764;2022-07-01T16:47:41;12.10;;;8.27;;
2173;SDS011;1093;51.424;11.764;2022-07-01T16:50:09;13.23;;;8.53;;
2173;SDS011;1093;51.424;11.764;2022-07-01T16:52:39;9.77;;;8.40;;
2173;SDS011;1093;51.424;11.764;2022-07-01T16:55:08;12.33;;;9.43;;
2173;SDS011;1093;51.424;11.764;2022-07-01T16:57:38;9.70;;;8.63;;
2173;SDS011;1093;51.424;11.764;2022-07-01T17:00:09;11.57;;;8.20;;
2173;SDS011;1093;51.424;11.764;2022-07-01T17:02:39;12.13;;;9.13;;
2173;SDS011;1093;51.424;11.764;2022-07-01T17:05:07;10.43;;;8.33;;
2173;SDS011;1093;51.424;11.764;2022-07-01T17:07:36;10.27;;;9.17;;
2173;SDS011;1093;51.424;11.764;2022-07-01T17:10:02;12.73;;;7.70;;
2173;SDS011;1093;51.424;11.764;2022-07-01T17:12:29;11.40;;;9.13;;
2173;SDS011;1093;51.424;11.764;2022-07-01T17:15:00;11.23;;;8.50;;
2173;SDS011;1093;51.424;11.764;2022-07-01T17:17:28;10.13;;;7.90;;
2173;SDS011;1093;51.424;11.764;2022-07-01T17:19:56;12.00;;;9.23;;
2173;SDS011;1093;51.424;11.764;2022-07-01T17:22:28;9.63;;;8.20;;
2173;SDS011;1093;51.424;11.764;2022-07-01T17:25:06;9.10;;;7.87;;
2173;SDS011;1093;51.424;11.764;2022-07-01T17:27:41;11.10;;;7.80;;
2173;SDS011;1093;51.424;11.764;2022-07-01T17:30:17;10.50;;;8.37;;
2173;SDS011;1093;51.424;11.764;2022-07-01T17:32:50;8.87;;;8.00;;
2173;SDS011;1093;51.424;11.764;2022-07-01T17:35:19;11.60;;;8.80;;
2173;SDS011;1093;51.424;11.764;2022-07-01T17:37:48;12.73;;;7.93;;
2173;SDS011;1093;51.424;11.764;2022-07-01T17:40:21;12.30;;;7.90;;
2173;SDS011;1093;51.424;11.764;2022-07-01T17:42:49;11.63;;;8.27;;
2173;SDS011;1093;51.424;11.764;2022-07-01T17:45:18;8.37;;;7.47;;
2173;SDS011;1093;51.424;11.764;2022-07-01T17:47:46;14.13;;;10.77;;
2173;SDS011;1093;51.424;11.764;2022-07-01T17:50:15;18.33;;;12.70;;
2173;SDS011;1093;51.424;11.764;2022-07-01T17:52:43;38.23;;;27.57;;
2173;SDS011;1093;51.424;11.764;2022-07-01T17:55:11;54.00;;;34.33;;
2173;SDS011;1093;51.424;11.764;2022-07-01T17:57:39;58.87;;;39.67;;
2173;SDS011;1093;51.424;11.764;2022-07-01T18:00:07;39.10;;;26.43;;
2173;SDS011;1093;51.424;11.764;2022-07-01T18:02:37;20.60;;;15.10;;
2173;SDS011;1093;51.424;11.764;2022-07-01T18:05:05;15.03;;;13.20;;
2173;SDS011;1093;51.424;11.764;2022-07-01T18:07:32;10.77;;;9.20;;
2173;SDS011;1093;51.424;11.764;2022-07-01T18:09:59;9.60;;;8.67;;
2173;SDS011;1093;51.424;11.764;2022-07-01T18:12:30;11.40;;;7.93;;
2173;SDS011;1093;51.424;11.764;2022-07-01T18:15:00;12.03;;;7.80;;
2173;SDS011;1093;51.424;11.764;2022-07-01T18:17:32;9.37;;;7.87;;
2173;SDS011;1093;51.424;11.764;2022-07-01T18:20:05;9.10;;;8.20;;
2173;SDS011;1093;51.424;11.764;2022-07-01T18:22:38;10.43;;;9.43;;
2173;SDS011;1093;51.424;11.764;2022-07-01T18:25:07;11.63;;;9.23;;
2173;SDS011;1093;51.424;11.764;2022-07-01T18:27:36;9.80;;;8.77;;
2173;SDS011;1093;51.424;11.764;2022-07-01T18:30:05;8.87;;;8.07;;
2173;SDS011;1093;51.424;11.764;2022-07-01T18:32:34;9.47;;;8.57;;
2173;SDS011;1093;51.424;11.764;2022-07-01T18:35:05;9.60;;;7.57;;
2173;SDS011;1093;51.424;11.764;2022-07-01T18:37:41;10.50;;;8.50;;
2173;SDS011;1093;51.424;11.764;2022-07-01T18:40:09;9.57;;;7.50;;
2173;SDS011;1093;51.424;11.764;2022-07-01T18:42:37;9.50;;;7.10;;
2173;SDS011;1093;51.424;11.764;2022-07-01T18:45:04;13.13;;;7.70;;
2173;SDS011;1093;51.424;11.764;2022-07-01T18:47:31;7.90;;;7.10;;
2173;SDS011;1093;51.424;11.764;2022-07-01T18:49:58;9.00;;;7.93;;
2173;SDS011;1093;51.424;11.764;2022-07-01T18:52:27;13.63;;;6.93;;
2173;SDS011;1093;51.424;11.764;2022-07-01T18:54:54;13.90;;;7.17;;
2173;SDS011;1093;51.424;11.764;2022-07-01T18:57:21;7.47;;;6.50;;
2173;SDS011;1093;51.424;11.764;2022-07-01T18:59:48;7.20;;;6.50;;
2173;SDS011;1093;51.424;11.764;2022-07-01T19:02:15;13.00;;;7.30;;
2173;SDS011;1093;51.424;11.764;2022-07-01T19:04:42;9.53;;;7.10;;
2173;SDS011;1093;51.424;11.764;2022-07-01T19:07:10;7.87;;;7.17;;
2173;SDS011;1093;51.424;11.764;2022-07-01T19:09:38;9.33;;;7.63;;
2173;SDS011;1093;51.424;11.764;2022-07-01T19:12:06;8.30;;;7.50;;
2173;SDS011;1093;51.424;11.764;2022-07-01T19:14:34;8.83;;;6.97;;
2173;SDS011;1093;51.424;11.764;2022-07-01T19:17:02;8.27;;;6.50;;
2173;SDS011;1093;51.424;11.764;2022-07-01T19:19:29;7.10;;;6.20;;
2173;SDS011;1093;51.424;11.764;2022-07-01T19:21:57;11.47;;;6.80;;
2173;SDS011;1093;51.424;11.764;2022-07-01T19:24:25;17.40;;;8.60;;
2173;SDS011;1093;51.424;11.764;2022-07-01T19:26:53;10.33;;;9.33;;
2173;SDS011;1093;51.424;11.764;2022-07-01T19:29:20;14.87;;;13.27;;
2173;SDS011;1093;51.424;11.764;2022-07-01T19:31:47;19.37;;;15.20;;
2173;SDS011;1093;51.424;11.764;2022-07-01T19:34:14;21.83;;;17.67;;
2173;SDS011;1093;51.424;11.764;2022-07-01T19:36:41;28.63;;;23.60;;
2173;SDS011;1093;51.424;11.764;2022-07-01T19:39:08;26.90;;;16.60;;
2173;SDS011;1093;51.424;11.764;2022-07-01T19:41:35;20.80;;;12.80;;
2173;SDS011;1093;51.424;11.764;2022-07-01T19:44:03;14.83;;;11.23;;
2173;SDS011;1093;51.424;11.764;2022-07-01T19:46:30;12.97;;;10.93;;
2173;SDS011;1093;51.424;11.764;2022-07-01T19:48:58;13.07;;;9.97;;
2173;SDS011;1093;51.424;11.764;2022-07-01T19:51:27;11.60;;;10.10;;
2173;SDS011;1093;51.424;11.764;2022-07-01T19:53:55;12.50;;;9.60;;
2173;SDS011;1093;51.424;11.764;2022-07-01T19:56:22;11.17;;;9.70;;
2173;SDS011;1093;51.424;11.764;2022-07-01T19:58:49;13.40;;;12.00;;
2173;SDS011;1093;51.424;11.764;2022-07-01T20:01:17;13.67;;;12.17;;
2173;SDS011;1093;51.424;11.764;2022-07-01T20:03:43;15.73;;;14.03;;
2173;SDS011;1093;51.424;11.764;2022-07-01T20:06:11;22.00;;;18.77;;
2173;SDS011;1093;51.424;11.764;2022-07-01T20:08:38;31.53;;;24.57;;
2173;SDS011;1093;51.424;11.764;2022-07-01T20:11:05;26.53;;;19.17;;
2173;SDS011;1093;51.424;11.764;2022-07-01T20:13:32;16.43;;;13.27;;
2173;SDS011;1093;51.424;11.764;2022-07-01T20:15:59;11.80;;;9.83;;
2173;SDS011;1093;51.424;11.764;2022-07-01T20:18:27;13.90;;;11.53;;
2173;SDS011;1093;51.424;11.764;2022-07-01T20:20:55;12.23;;;11.00;;
2173;SDS011;1093;51.424;11.764;2022-07-01T20:23:23;14.77;;;12.77;;
2173;SDS011;1093;51.424;11.764;2022-07-01T20:25:52;20.53;;;13.70;;
2173;SDS011;1093;51.424;11.764;2022-07-01T20:28:19;20.60;;;18.10;;
2173;SDS011;1093;51.424;11.764;2022-07-01T20:30:46;21.13;;;18.93;;
2173;SDS011;1093;51.424;11.764;2022-07-01T20:33:12;18.73;;;16.80;;
2173;SDS011;1093;51.424;11.764;2022-07-01T20:35:41;15.93;;;13.93;;
2173;SDS011;1093;51.424;11.764;2022-07-01T20:38:08;29.00;;;25.90;;
2173;SDS011;1093;51.424;11.764;2022-07-01T20:40:34;63.80;;;57.10;;
2173;SDS011;1093;51.424;11.764;2022-07-01T20:43:01;54.03;;;48.57;;
2173;SDS011;1093;51.424;11.764;2022-07-01T20:45:28;50.50;;;45.07;;
2173;SDS011;1093;51.424;11.764;2022-07-01T20:47:55;36.43;;;32.50;;
2173;SDS011;1093;51.424;11.764;2022-07-01T20:50:22;30.23;;;23.63;;
2173;SDS011;1093;51.424;11.764;2022-07-01T20:52:50;23.60;;;20.73;;
2173;SDS011;1093;51.424;11.764;2022-07-01T20:55:17;24.97;;;16.77;;
2173;SDS011;1093;51.424;11.764;2022-07-01T20:57:43;17.50;;;15.70;;
2173;SDS011;1093;51.424;11.764;2022-07-01T21:00:11;16.13;;;14.37;;
2173;SDS011;1093;51.424;11.764;2022-07-01T21:02:39;19.27;;;17.37;;
2173;SDS011;1093;51.424;11.764;2022-07-01T21:05:06;20.67;;;18.50;;
2173;SDS011;1093;51.424;11.764;2022-07-01T21:07:33;17.23;;;14.80;;
2173;SDS011;1093;51.424;11.764;2022-07-01T21:10:02;16.37;;;11.80;;
2173;SDS011;1093;51.424;11.764;2022-07-01T21:12:29;13.70;;;11.30;;
2173;SDS011;1093;51.424;11.764;2022-07-01T21:14:56;14.27;;;11.40;;
2173;SDS011;1093;51.424;11.764;2022-07-01T21:17:22;17.33;;;11.10;;
2173;SDS011;1093;51.424;11.764;2022-07-01T21:19:49;18.43;;;11.63;;
2173;SDS011;1093;51.424;11.764;2022-07-01T21:22:16;13.60;;;10.67;;
2173;SDS011;1093;51.424;11.764;2022-07-01T21:24:42;19.77;;;11.20;;
2173;SDS011;1093;51.424;11.764;2022-07-01T21:27:10;16.90;;;12.03;;
2173;SDS011;1093;51.424;11.764;2022-07-01T21:29:37;32.87;;;12.20;;
2173;SDS011;1093;51.424;11.764;2022-07-01T21:32:04;20.93;;;12.17;;
2173;SDS011;1093;51.424;11.764;2022-07-01T21:34:31;14.03;;;10.50;;
2173;SDS011;1093;51.424;11.764;2022-07-01T21:36:59;15.33;;;12.00;;
2173;SDS011;1093;51.424;11.764;2022-07-01T21:39:26;14.33;;;9.70;;
2173;SDS011;1093;51.424;11.764;2022-07-01T21:41:53;19.13;;;11.50;;
2173;SDS011;1093;51.424;11.764;2022-07-01T21:44:21;21.50;;;11.00;;
2173;SDS011;1093;51.424;11.764;2022-07-01T21:46:48;16.60;;;11.77;;
2173;SDS011;1093;51.424;11.764;2022-07-01T21:49:15;18.40;;;12.60;;
2173;SDS011;1093;51.424;11.764;2022-07-01T21:51:42;16.87;;;13.00;;
2173;SDS011;1093;51.424;11.764;2022-07-01T21:54:11;19.07;;;14.57;;
2173;SDS011;1093;51.424;11.764;2022-07-01T21:56:40;23.83;;;16.47;;
2173;SDS011;1093;51.424;11.764;2022-07-01T21:59:11;26.33;;;17.50;;
2173;SDS011;1093;51.424;11.764;2022-07-01T22:01:40;27.10;;;19.63;;
2173;SDS011;1093;51.424;11.764;2022-07-01T22:04:08;27.40;;;16.97;;
2173;SDS011;1093;51.424;11.764;2022-07-01T22:06:36;21.40;;;14.73;;
2173;SDS011;1093;51.424;11.764;2022-07-01T22:09:20;26.97;;;18.80;;
2173;SDS011;1093;51.424;11.764;2022-07-01T22:11:48;29.10;;;17.83;;
2173;SDS011;1093;51.424;11.764;2022-07-01T22:14:18;26.80;;;16.13;;
2173;SDS011;1093;51.424;11.764;2022-07-01T22:16:48;20.17;;;13.17;;
2173;SDS011;1093;51.424;11.764;2022-07-01T22:19:21;17.67;;;13.10;;
2173;SDS011;1093;51.424;11.764;2022-07-01T22:21:51;18.23;;;12.10;;
2173;SDS011;1093;51.424;11.764;2022-07-01T22:24:22;17.30;;;11.50;;
2173;SDS011;1093;51.424;11.764;2022-07-01T22:26:49;20.87;;;12.00;;
2173;SDS011;1093;51.424;11.764;2022-07-01T22:29:17;18.57;;;12.53;;
2173;SDS011;1093;51.424;11.764;2022-07-01T22:31:48;18.17;;;13.37;;
2173;SDS011;1093;51.424;11.764;2022-07-01T22:34:15;17.20;;;12.60;;
2173;SDS011;1093;51.424;11.764;2022-07-01T22:36:43;21.60;;;12.97;;
2173;SDS011;1093;51.424;11.764;2022-07-01T22:39:10;25.90;;;14.80;;
2173;SDS011;1093;51.424;11.764;2022-07-01T22:41:38;25.57;;;15.03;;
2173;SDS011;1093;51.424;11.764;2022-07-01T22:44:05;19.17;;;13.43;;
2173;SDS011;1093;51.424;11.764;2022-07-01T22:46:36;24.40;;;14.90;;
2173;SDS011;1093;51.424;11.764;2022-07-01T22:49:14;19.90;;;14.00;;
2173;SDS011;1093;51.424;11.764;2022-07-01T22:51:50;26.27;;;15.23;;
2173;SDS011;1093;51.424;11.764;2022-07-01T22:54:29;24.77;;;14.20;;
2173;SDS011;1093;51.424;11.764;2022-07-01T22:57:02;18.90;;;13.83;;
2173;SDS011;1093;51.424;11.764;2022-07-01T22:59:30;21.63;;;12.80;;
2173;SDS011;1093;51.424;11.764;2022-07-01T23:01:58;23.70;;;14.07;;
2173;SDS011;1093;51.424;11.764;2022-07-01T23:04:34;21.43;;;14.33;;
2173;SDS011;1093;51.424;11.764;2022-07-01T23:07:08;21.20;;;16.03;;
2173;SDS011;1093;51.424;11.764;2022-07-01T23:09:41;24.83;;;14.03;;
2173;SDS011;1093;51.424;11.764;2022-07-01T23:12:15;22.20;;;13.80;;
2173;SDS011;1093;51.424;11.764;2022-07-01T23:14:47;25.80;;;15.33;;
2173;SDS011;1093;51.424;11.764;2022-07-01T23:17:37;19.00;;;13.83;;
2173;SDS011;1093;51.424;11.764;2022-07-01T23:20:08;21.90;;;14.37;;
2173;SDS011;1093;51.424;11.764;2022-07-01T23:22:36;22.87;;;13.70;;
2173;SDS011;1093;51.424;11.764;2022-07-01T23:25:05;22.63;;;14.27;;
2173;SDS011;1093;51.424;11.764;2022-07-01T23:27:34;22.53;;;15.77;;
2173;SDS011;1093;51.424;11.764;2022-07-01T23:30:02;25.00;;;16.23;;
2173;SDS011;1093;51.424;11.764;2022-07-01T23:32:29;24.27;;;15.03;;
2173;SDS011;1093;51.424;11.764;2022-07-01T23:34:57;25.87;;;18.10;;
2173;SDS011;1093;51.424;11.764;2022-07-01T23:37:26;22.37;;;15.17;;
2173;SDS011;1093;51.424;11.764;2022-07-01T23:39:55;19.87;;;13.73;;
2173;SDS011;1093;51.424;11.764;2022-07-01T23:42:24;20.90;;;12.83;;
2173;SDS011;1093;51.424;11.764;2022-07-01T23:44:50;24.47;;;15.13;;
2173;SDS011;1093;51.424;11.764;2022-07-01T23:47:17;26.77;;;16.00;;
2173;SDS011;1093;51.424;11.764;2022-07-01T23:49:44;24.63;;;14.13;;
2173;SDS011;1093;51.424;11.764;2022-07-01T23:52:11;20.37;;;14.73;;
2173;SDS011;1093;51.424;11.764;2022-07-01T23:54:40;22.10;;;14.40;;
2173;SDS011;1093;51.424;11.764;2022-07-01T23:57:07;19.63;;;13.80;;
2173;SDS011;1093;51.424;11.764;2022-07-01T23:59:33;25.33;;;12.50;;
